sensor_id;sensor_type;location;lat;lon;timestamp;pressure;altitude;pressure_sealevel;temperature;humidity
46408;BME280;32110;45.724;21.276;2022-08-14T00:03:27;99894.13;;;19.80;nan
46408;BME280;32110;45.724;21.276;2022-08-14T00:05:55;99856.88;;;19.84;nan
46408;BME280;32110;45.724;21.276;2022-08-14T00:08:21;99847.09;;;19.79;nan
46408;BME280;32110;45.724;21.276;2022-08-14T00:10:47;99843.44;;;19.75;nan
46408;BME280;32110;45.724;21.276;2022-08-14T00:13:15;99821.69;;;19.68;nan
46408;BME280;32110;45.724;21.276;2022-08-14T00:15:43;99847.69;;;19.62;nan
46408;BME280;32110;45.724;21.276;2022-08-14T00:18:11;99856.81;;;19.61;nan
46408;BME280;32110;45.724;21.276;2022-08-14T00:20:39;99858.19;;;19.59;nan
46408;BME280;32110;45.724;21.276;2022-08-14T00:23:07;99880.44;;;19.54;nan
46408;BME280;32110;45.724;21.276;2022-08-14T00:25:33;99849.97;;;19.41;nan
46408;BME280;32110;45.724;21.276;2022-08-14T00:27:58;99864.09;;;19.42;nan
46408;BME280;32110;45.724;21.276;2022-08-14T00:30:24;99884.91;;;19.45;nan
46408;BME280;32110;45.724;21.276;2022-08-14T00:35:15;99872.94;;;19.42;nan
46408;BME280;32110;45.724;21.276;2022-08-14T00:37:43;99852.63;;;19.27;nan
46408;BME280;32110;45.724;21.276;2022-08-14T00:40:12;99881.72;;;19.43;nan
46408;BME280;32110;45.724;21.276;2022-08-14T00:45:06;99880.13;;;19.42;nan
46408;BME280;32110;45.724;21.276;2022-08-14T00:47:32;99870.38;;;19.37;nan
46408;BME280;32110;45.724;21.276;2022-08-14T00:52:27;99880.72;;;19.39;nan
46408;BME280;32110;45.724;21.276;2022-08-14T00:54:52;99861.63;;;19.31;nan
46408;BME280;32110;45.724;21.276;2022-08-14T00:57:23;99926.72;;;19.36;nan
46408;BME280;32110;45.724;21.276;2022-08-14T00:59:49;99878.75;;;19.30;nan
46408;BME280;32110;45.724;21.276;2022-08-14T01:04:45;99874.88;;;19.37;nan
46408;BME280;32110;45.724;21.276;2022-08-14T01:07:11;99876.16;;;19.39;nan
46408;BME280;32110;45.724;21.276;2022-08-14T01:09:50;99881.22;;;19.41;nan
46408;BME280;32110;45.724;21.276;2022-08-14T01:12:16;99882.50;;;19.43;nan
46408;BME280;32110;45.724;21.276;2022-08-14T01:14:42;99905.75;;;19.43;nan
46408;BME280;32110;45.724;21.276;2022-08-14T01:17:07;99874.50;;;19.43;nan
46408;BME280;32110;45.724;21.276;2022-08-14T01:19:33;99883.00;;;19.45;nan
46408;BME280;32110;45.724;21.276;2022-08-14T01:22:17;99880.13;;;19.42;nan
46408;BME280;32110;45.724;21.276;2022-08-14T01:24:43;99865.69;;;19.43;nan
46408;BME280;32110;45.724;21.276;2022-08-14T01:27:16;99881.81;;;19.38;nan
46408;BME280;32110;45.724;21.276;2022-08-14T01:29:44;99878.56;;;19.41;nan
46408;BME280;32110;45.724;21.276;2022-08-14T01:32:10;99868.97;;;19.40;nan
46408;BME280;32110;45.724;21.276;2022-08-14T01:34:36;99875.88;;;19.41;nan
46408;BME280;32110;45.724;21.276;2022-08-14T01:37:01;99862.81;;;19.39;nan
46408;BME280;32110;45.724;21.276;2022-08-14T01:39:27;99860.47;;;19.38;nan
46408;BME280;32110;45.724;21.276;2022-08-14T01:44:26;99864.91;;;19.42;nan
46408;BME280;32110;45.724;21.276;2022-08-14T01:46:54;99869.94;;;19.44;nan
46408;BME280;32110;45.724;21.276;2022-08-14T01:49:21;99855.63;;;19.40;nan
46408;BME280;32110;45.724;21.276;2022-08-14T01:51:48;99837.50;;;19.37;nan
46408;BME280;32110;45.724;21.276;2022-08-14T01:56:46;99863.53;;;19.45;nan
46408;BME280;32110;45.724;21.276;2022-08-14T01:59:21;99864.09;;;19.42;nan
46408;BME280;32110;45.724;21.276;2022-08-14T02:01:50;99917.81;;;19.40;nan
46408;BME280;32110;45.724;21.276;2022-08-14T02:04:17;99868.38;;;19.43;nan
46408;BME280;32110;45.724;21.276;2022-08-14T02:06:44;99856.59;;;19.44;nan
46408;BME280;32110;45.724;21.276;2022-08-14T02:09:09;99856.59;;;19.44;nan
46408;BME280;32110;45.724;21.276;2022-08-14T02:11:35;99819.31;;;19.39;nan
46408;BME280;32110;45.724;21.276;2022-08-14T02:14:04;99894.84;;;19.39;nan
46408;BME280;32110;45.724;21.276;2022-08-14T02:16:36;99857.69;;;19.43;nan
46408;BME280;32110;45.724;21.276;2022-08-14T02:19:09;99841.88;;;19.32;nan
46408;BME280;32110;45.724;21.276;2022-08-14T02:21:36;99864.22;;;19.37;nan
46408;BME280;32110;45.724;21.276;2022-08-14T02:24:03;99843.44;;;19.20;nan
46408;BME280;32110;45.724;21.276;2022-08-14T02:26:31;99858.47;;;19.29;nan
46408;BME280;32110;45.724;21.276;2022-08-14T02:29:01;99855.81;;;19.29;nan
46408;BME280;32110;45.724;21.276;2022-08-14T02:31:28;99845.31;;;19.19;nan
46408;BME280;32110;45.724;21.276;2022-08-14T02:33:57;99847.91;;;19.24;nan
46408;BME280;32110;45.724;21.276;2022-08-14T02:36:23;99787.00;;;19.26;nan
46408;BME280;32110;45.724;21.276;2022-08-14T02:38:48;99871.31;;;19.27;nan
46408;BME280;32110;45.724;21.276;2022-08-14T02:41:15;99874.31;;;19.26;nan
46408;BME280;32110;45.724;21.276;2022-08-14T02:43:42;99852.25;;;19.20;nan
46408;BME280;32110;45.724;21.276;2022-08-14T02:46:09;99848.00;;;19.19;nan
46408;BME280;32110;45.724;21.276;2022-08-14T02:48:39;99869.06;;;19.21;nan
46408;BME280;32110;45.724;21.276;2022-08-14T02:51:08;99844.03;;;19.17;nan
46408;BME280;32110;45.724;21.276;2022-08-14T02:53:37;99905.25;;;19.13;nan
46408;BME280;32110;45.724;21.276;2022-08-14T02:56:04;99863.59;;;19.12;nan
46408;BME280;32110;45.724;21.276;2022-08-14T02:58:29;99822.88;;;19.06;nan
46408;BME280;32110;45.724;21.276;2022-08-14T03:00:55;99848.28;;;19.04;nan
46408;BME280;32110;45.724;21.276;2022-08-14T03:03:20;99848.78;;;19.06;nan
46408;BME280;32110;45.724;21.276;2022-08-14T03:05:50;99840.38;;;18.99;nan
46408;BME280;32110;45.724;21.276;2022-08-14T03:08:16;99811.22;;;19.02;nan
46408;BME280;32110;45.724;21.276;2022-08-14T03:10:42;99918.16;;;19.06;nan
46408;BME280;32110;45.724;21.276;2022-08-14T03:13:07;99847.19;;;19.05;nan
46408;BME280;32110;45.724;21.276;2022-08-14T03:18:18;99855.97;;;19.05;nan
46408;BME280;32110;45.724;21.276;2022-08-14T03:20:48;99832.06;;;19.00;nan
46408;BME280;32110;45.724;21.276;2022-08-14T03:23:14;99857.34;;;19.03;nan
46408;BME280;32110;45.724;21.276;2022-08-14T03:25:39;99860.63;;;19.00;nan
46408;BME280;32110;45.724;21.276;2022-08-14T03:28:06;99866.56;;;18.97;nan
46408;BME280;32110;45.724;21.276;2022-08-14T03:30:32;99869.50;;;18.95;nan
46408;BME280;32110;45.724;21.276;2022-08-14T03:32:58;99864.03;;;18.86;nan
46408;BME280;32110;45.724;21.276;2022-08-14T03:37:49;99863.47;;;18.89;nan
46408;BME280;32110;45.724;21.276;2022-08-14T03:40:18;99860.59;;;18.86;nan
46408;BME280;32110;45.724;21.276;2022-08-14T03:42:44;99829.75;;;18.80;nan
46408;BME280;32110;45.724;21.276;2022-08-14T03:45:09;99854.56;;;18.80;nan
46408;BME280;32110;45.724;21.276;2022-08-14T03:47:35;99824.47;;;18.75;nan
46408;BME280;32110;45.724;21.276;2022-08-14T03:57:32;99824.00;;;18.73;nan
46408;BME280;32110;45.724;21.276;2022-08-14T03:59:58;99829.69;;;18.66;nan
46408;BME280;32110;45.724;21.276;2022-08-14T04:02:27;99855.00;;;18.68;nan
46408;BME280;32110;45.724;21.276;2022-08-14T04:04:52;99864.00;;;18.73;nan
46408;BME280;32110;45.724;21.276;2022-08-14T04:09:43;99870.63;;;18.75;nan
46408;BME280;32110;45.724;21.276;2022-08-14T04:12:08;99854.91;;;18.74;nan
46408;BME280;32110;45.724;21.276;2022-08-14T04:14:34;99859.81;;;18.66;nan
46408;BME280;32110;45.724;21.276;2022-08-14T04:24:16;99882.72;;;18.67;nan
46408;BME280;32110;45.724;21.276;2022-08-14T04:26:42;99853.91;;;18.69;nan
46408;BME280;32110;45.724;21.276;2022-08-14T04:29:11;99976.66;;;18.64;nan
46408;BME280;32110;45.724;21.276;2022-08-14T04:34:04;99868.31;;;18.68;nan
46408;BME280;32110;45.724;21.276;2022-08-14T04:36:30;99914.81;;;18.62;nan
46408;BME280;32110;45.724;21.276;2022-08-14T04:38:57;99861.38;;;18.54;nan
46408;BME280;32110;45.724;21.276;2022-08-14T04:41:41;99866.81;;;18.62;nan
46408;BME280;32110;45.724;21.276;2022-08-14T04:44:25;99862.50;;;18.66;nan
46408;BME280;32110;45.724;21.276;2022-08-14T04:49:35;99853.78;;;18.61;nan
46408;BME280;32110;45.724;21.276;2022-08-14T04:54:28;99849.16;;;18.66;nan
46408;BME280;32110;45.724;21.276;2022-08-14T04:56:54;99886.78;;;18.65;nan
46408;BME280;32110;45.724;21.276;2022-08-14T04:59:21;99859.69;;;18.58;nan
46408;BME280;32110;45.724;21.276;2022-08-14T05:01:46;99852.97;;;18.60;nan
46408;BME280;32110;45.724;21.276;2022-08-14T05:04:12;99847.44;;;18.57;nan
46408;BME280;32110;45.724;21.276;2022-08-14T05:09:04;99854.06;;;18.59;nan
46408;BME280;32110;45.724;21.276;2022-08-14T05:13:58;99824.81;;;18.54;nan
46408;BME280;32110;45.724;21.276;2022-08-14T05:16:26;99844.19;;;18.60;nan
46408;BME280;32110;45.724;21.276;2022-08-14T05:23:44;99841.16;;;18.66;nan
46408;BME280;32110;45.724;21.276;2022-08-14T05:26:09;99850.72;;;18.67;nan
46408;BME280;32110;45.724;21.276;2022-08-14T05:28:42;99854.41;;;18.71;nan
46408;BME280;32110;45.724;21.276;2022-08-14T05:33:35;99842.25;;;18.65;nan
46408;BME280;32110;45.724;21.276;2022-08-14T05:36:07;99863.41;;;18.76;nan
46408;BME280;32110;45.724;21.276;2022-08-14T05:38:39;99837.00;;;18.74;nan
46408;BME280;32110;45.724;21.276;2022-08-14T05:41:16;99847.63;;;18.79;nan
46408;BME280;32110;45.724;21.276;2022-08-14T05:43:42;99853.78;;;18.80;nan
46408;BME280;32110;45.724;21.276;2022-08-14T05:46:13;99846.56;;;18.80;nan
46408;BME280;32110;45.724;21.276;2022-08-14T05:48:39;99838.84;;;18.79;nan
46408;BME280;32110;45.724;21.276;2022-08-14T05:51:05;99872.03;;;18.86;nan
46408;BME280;32110;45.724;21.276;2022-08-14T05:53:31;99826.91;;;18.90;nan
46408;BME280;32110;45.724;21.276;2022-08-14T05:55:56;99848.53;;;18.88;nan
46408;BME280;32110;45.724;21.276;2022-08-14T05:58:23;99811.19;;;18.88;nan
46408;BME280;32110;45.724;21.276;2022-08-14T06:03:17;99848.38;;;18.99;nan
46408;BME280;32110;45.724;21.276;2022-08-14T06:05:45;99845.22;;;18.97;nan
46408;BME280;32110;45.724;21.276;2022-08-14T06:08:25;99828.00;;;19.03;nan
46408;BME280;32110;45.724;21.276;2022-08-14T06:13:18;99851.13;;;19.07;nan
46408;BME280;32110;45.724;21.276;2022-08-14T06:15:44;99852.75;;;19.08;nan
46408;BME280;32110;45.724;21.276;2022-08-14T06:20:37;99859.56;;;19.15;nan
46408;BME280;32110;45.724;21.276;2022-08-14T06:25:29;99855.50;;;19.17;nan
46408;BME280;32110;45.724;21.276;2022-08-14T06:27:54;99851.66;;;19.23;nan
46408;BME280;32110;45.724;21.276;2022-08-14T06:30:26;99887.06;;;19.29;nan
46408;BME280;32110;45.724;21.276;2022-08-14T06:32:52;99835.03;;;19.26;nan
46408;BME280;32110;45.724;21.276;2022-08-14T06:35:18;99867.97;;;19.36;nan
46408;BME280;32110;45.724;21.276;2022-08-14T06:42:49;99868.97;;;19.40;nan
46408;BME280;32110;45.724;21.276;2022-08-14T06:47:42;99860.97;;;19.40;nan
46408;BME280;32110;45.724;21.276;2022-08-14T06:50:11;99850.19;;;19.45;nan
46408;BME280;32110;45.724;21.276;2022-08-14T06:52:37;99876.19;;;19.53;nan
46408;BME280;32110;45.724;21.276;2022-08-14T06:57:34;99877.69;;;19.59;nan
46408;BME280;32110;45.724;21.276;2022-08-14T07:02:28;99876.38;;;19.70;nan
46408;BME280;32110;45.724;21.276;2022-08-14T07:05:12;99805.44;;;19.64;nan
46408;BME280;32110;45.724;21.276;2022-08-14T07:07:56;99882.63;;;19.80;nan
46408;BME280;32110;45.724;21.276;2022-08-14T07:10:22;99870.25;;;19.84;nan
46408;BME280;32110;45.724;21.276;2022-08-14T07:12:48;99881.44;;;19.86;nan
46408;BME280;32110;45.724;21.276;2022-08-14T07:15:13;99895.06;;;19.98;nan
46408;BME280;32110;45.724;21.276;2022-08-14T07:17:44;99862.59;;;20.05;nan
46408;BME280;32110;45.724;21.276;2022-08-14T07:20:10;99878.50;;;20.10;nan
46408;BME280;32110;45.724;21.276;2022-08-14T07:22:35;99877.63;;;20.14;nan
46408;BME280;32110;45.724;21.276;2022-08-14T07:25:01;99806.50;;;20.13;nan
46408;BME280;32110;45.724;21.276;2022-08-14T07:27:26;99887.28;;;20.24;nan
46408;BME280;32110;45.724;21.276;2022-08-14T07:29:52;99839.66;;;20.26;nan
46408;BME280;32110;45.724;21.276;2022-08-14T07:32:17;99856.19;;;20.28;nan
46408;BME280;32110;45.724;21.276;2022-08-14T07:34:42;99928.81;;;20.44;nan
46408;BME280;32110;45.724;21.276;2022-08-14T07:37:08;99894.41;;;20.51;nan
46408;BME280;32110;45.724;21.276;2022-08-14T07:41:58;99870.34;;;20.51;nan
46408;BME280;32110;45.724;21.276;2022-08-14T07:44:24;99889.81;;;20.66;nan
46408;BME280;32110;45.724;21.276;2022-08-14T07:46:49;99935.91;;;20.63;nan
46408;BME280;32110;45.724;21.276;2022-08-14T07:49:15;99876.81;;;20.73;nan
46408;BME280;32110;45.724;21.276;2022-08-14T07:51:41;99869.50;;;20.87;nan
46408;BME280;32110;45.724;21.276;2022-08-14T07:54:06;99916.59;;;20.88;nan
46408;BME280;32110;45.724;21.276;2022-08-14T07:56:32;99922.03;;;21.06;nan
46408;BME280;32110;45.724;21.276;2022-08-14T07:58:57;99860.63;;;21.09;nan
46408;BME280;32110;45.724;21.276;2022-08-14T08:01:23;99882.28;;;21.21;nan
46408;BME280;32110;45.724;21.276;2022-08-14T08:03:50;99874.75;;;21.32;nan
46408;BME280;32110;45.724;21.276;2022-08-14T08:06:16;99881.75;;;21.42;nan
46408;BME280;32110;45.724;21.276;2022-08-14T08:08:42;99866.94;;;21.44;nan
46408;BME280;32110;45.724;21.276;2022-08-14T08:11:10;99827.75;;;21.57;nan
46408;BME280;32110;45.724;21.276;2022-08-14T08:13:40;99863.06;;;21.68;nan
46408;BME280;32110;45.724;21.276;2022-08-14T08:16:06;99859.75;;;21.71;nan
46408;BME280;32110;45.724;21.276;2022-08-14T08:18:32;99874.59;;;21.86;nan
46408;BME280;32110;45.724;21.276;2022-08-14T08:20:58;99849.84;;;21.98;nan
46408;BME280;32110;45.724;21.276;2022-08-14T08:23:24;99848.31;;;22.05;nan
46408;BME280;32110;45.724;21.276;2022-08-14T08:25:51;99884.56;;;22.12;nan
46408;BME280;32110;45.724;21.276;2022-08-14T08:28:25;99875.94;;;22.23;nan
46408;BME280;32110;45.724;21.276;2022-08-14T08:33:20;99854.31;;;22.37;nan
46408;BME280;32110;45.724;21.276;2022-08-14T08:35:47;99863.16;;;22.46;nan
46408;BME280;32110;45.724;21.276;2022-08-14T08:38:24;99858.09;;;22.54;nan
46408;BME280;32110;45.724;21.276;2022-08-14T08:40:53;99859.00;;;22.58;nan
46408;BME280;32110;45.724;21.276;2022-08-14T08:43:32;99865.16;;;22.67;nan
46408;BME280;32110;45.724;21.276;2022-08-14T08:46:18;99814.94;;;22.76;nan
46408;BME280;32110;45.724;21.276;2022-08-14T08:51:27;99852.63;;;22.88;nan
46408;BME280;32110;45.724;21.276;2022-08-14T08:54:00;99877.28;;;22.99;nan
46408;BME280;32110;45.724;21.276;2022-08-14T08:56:52;99865.88;;;23.02;nan
46408;BME280;32110;45.724;21.276;2022-08-14T09:01:55;99887.97;;;23.17;nan
46408;BME280;32110;45.724;21.276;2022-08-14T09:04:27;99828.09;;;23.07;nan
46408;BME280;32110;45.724;21.276;2022-08-14T09:06:54;99824.91;;;23.23;nan
46408;BME280;32110;45.724;21.276;2022-08-14T09:09:24;99848.81;;;23.36;nan
46408;BME280;32110;45.724;21.276;2022-08-14T09:11:55;99827.28;;;23.45;nan
46408;BME280;32110;45.724;21.276;2022-08-14T09:14:23;99858.97;;;23.61;nan
46408;BME280;32110;45.724;21.276;2022-08-14T09:16:49;99876.97;;;23.69;nan
46408;BME280;32110;45.724;21.276;2022-08-14T09:19:15;99843.25;;;23.80;nan
46408;BME280;32110;45.724;21.276;2022-08-14T09:21:41;99792.44;;;23.87;nan
46408;BME280;32110;45.724;21.276;2022-08-14T09:24:08;99760.72;;;23.93;nan
46408;BME280;32110;45.724;21.276;2022-08-14T09:26:35;99848.59;;;24.01;nan
46408;BME280;32110;45.724;21.276;2022-08-14T09:29:01;99837.78;;;24.10;nan
46408;BME280;32110;45.724;21.276;2022-08-14T09:31:28;99830.66;;;24.14;nan
46408;BME280;32110;45.724;21.276;2022-08-14T09:36:48;99805.47;;;24.31;nan
46408;BME280;32110;45.724;21.276;2022-08-14T09:39:47;99803.16;;;24.41;nan
46408;BME280;32110;45.724;21.276;2022-08-14T09:45:13;99821.66;;;24.64;nan
46408;BME280;32110;45.724;21.276;2022-08-14T09:47:54;99800.78;;;24.73;nan
46408;BME280;32110;45.724;21.276;2022-08-14T09:50:42;99808.09;;;24.85;nan
46408;BME280;32110;45.724;21.276;2022-08-14T09:53:09;99815.75;;;24.95;nan
46408;BME280;32110;45.724;21.276;2022-08-14T09:55:35;99812.13;;;25.03;nan
46408;BME280;32110;45.724;21.276;2022-08-14T09:58:19;99809.00;;;25.14;nan
46408;BME280;32110;45.724;21.276;2022-08-14T10:00:47;99799.03;;;25.14;nan
46408;BME280;32110;45.724;21.276;2022-08-14T10:03:31;99781.88;;;25.19;nan
46408;BME280;32110;45.724;21.276;2022-08-14T10:06:08;99784.88;;;25.30;nan
46408;BME280;32110;45.724;21.276;2022-08-14T10:13:41;99791.56;;;25.60;nan
46408;BME280;32110;45.724;21.276;2022-08-14T10:16:07;99780.41;;;25.74;nan
46408;BME280;32110;45.724;21.276;2022-08-14T10:18:33;99804.97;;;25.85;nan
46408;BME280;32110;45.724;21.276;2022-08-14T10:21:00;99756.47;;;25.73;nan
46408;BME280;32110;45.724;21.276;2022-08-14T10:23:39;99808.16;;;25.87;nan
46408;BME280;32110;45.724;21.276;2022-08-14T10:26:07;99765.44;;;25.89;nan
46408;BME280;32110;45.724;21.276;2022-08-14T10:28:42;99762.16;;;25.96;nan
46408;BME280;32110;45.724;21.276;2022-08-14T10:31:22;99781.59;;;26.01;nan
46408;BME280;32110;45.724;21.276;2022-08-14T10:34:07;99766.56;;;26.16;nan
46408;BME280;32110;45.724;21.276;2022-08-14T10:36:37;99780.59;;;26.22;nan
46408;BME280;32110;45.724;21.276;2022-08-14T10:39:06;99741.84;;;26.30;nan
46408;BME280;32110;45.724;21.276;2022-08-14T10:41:39;99753.16;;;26.36;nan
46408;BME280;32110;45.724;21.276;2022-08-14T10:44:10;99742.28;;;26.48;nan
46408;BME280;32110;45.724;21.276;2022-08-14T10:46:54;99800.88;;;26.60;nan
46408;BME280;32110;45.724;21.276;2022-08-14T10:49:27;99749.06;;;26.70;nan
46408;BME280;32110;45.724;21.276;2022-08-14T10:52:06;99745.47;;;26.82;nan
46408;BME280;32110;45.724;21.276;2022-08-14T10:54:41;99751.38;;;26.87;nan
46408;BME280;32110;45.724;21.276;2022-08-14T10:57:20;99760.44;;;26.95;nan
46408;BME280;32110;45.724;21.276;2022-08-14T10:59:55;99749.00;;;27.02;nan
46408;BME280;32110;45.724;21.276;2022-08-14T11:02:32;99769.66;;;27.10;nan
46408;BME280;32110;45.724;21.276;2022-08-14T11:05:16;99759.78;;;27.17;nan
46408;BME280;32110;45.724;21.276;2022-08-14T11:10:22;99789.28;;;27.23;nan
46408;BME280;32110;45.724;21.276;2022-08-14T11:12:52;99755.94;;;27.34;nan
46408;BME280;32110;45.724;21.276;2022-08-14T11:15:26;99678.09;;;27.24;nan
46408;BME280;32110;45.724;21.276;2022-08-14T11:20:21;99720.13;;;27.22;nan
46408;BME280;32110;45.724;21.276;2022-08-14T11:22:50;99727.28;;;27.30;nan
46408;BME280;32110;45.724;21.276;2022-08-14T11:25:17;99707.84;;;27.44;nan
46408;BME280;32110;45.724;21.276;2022-08-14T11:27:46;99704.00;;;27.45;nan
46408;BME280;32110;45.724;21.276;2022-08-14T11:30:14;99696.81;;;27.52;nan
46408;BME280;32110;45.724;21.276;2022-08-14T11:32:42;99711.09;;;27.72;nan
46408;BME280;32110;45.724;21.276;2022-08-14T11:35:12;99712.38;;;27.78;nan
46408;BME280;32110;45.724;21.276;2022-08-14T11:38:01;99695.25;;;27.71;nan
46408;BME280;32110;45.724;21.276;2022-08-14T11:40:30;99694.75;;;27.85;nan
46408;BME280;32110;45.724;21.276;2022-08-14T11:42:59;99718.28;;;28.04;nan
46408;BME280;32110;45.724;21.276;2022-08-14T11:45:28;99702.03;;;28.04;nan
46408;BME280;32110;45.724;21.276;2022-08-14T11:47:58;99719.25;;;28.15;nan
46408;BME280;32110;45.724;21.276;2022-08-14T11:50:27;99734.13;;;28.25;nan
46408;BME280;32110;45.724;21.276;2022-08-14T11:52:53;99718.38;;;28.30;nan
46408;BME280;32110;45.724;21.276;2022-08-14T11:55:22;99722.81;;;28.42;nan
46408;BME280;32110;45.724;21.276;2022-08-14T11:58:02;99707.53;;;28.53;nan
46408;BME280;32110;45.724;21.276;2022-08-14T12:00:29;99660.94;;;28.44;nan
46408;BME280;32110;45.724;21.276;2022-08-14T12:02:57;99724.66;;;28.57;nan
46408;BME280;32110;45.724;21.276;2022-08-14T12:05:49;99716.66;;;28.68;nan
46408;BME280;32110;45.724;21.276;2022-08-14T12:08:15;99706.63;;;28.69;nan
46408;BME280;32110;45.724;21.276;2022-08-14T12:10:42;99695.69;;;28.61;nan
46408;BME280;32110;45.724;21.276;2022-08-14T12:13:17;99698.41;;;28.61;nan
46408;BME280;32110;45.724;21.276;2022-08-14T12:15:56;99689.06;;;28.59;nan
46408;BME280;32110;45.724;21.276;2022-08-14T12:18:34;99707.13;;;28.78;nan
46408;BME280;32110;45.724;21.276;2022-08-14T12:21:20;99737.44;;;28.83;nan
46408;BME280;32110;45.724;21.276;2022-08-14T12:23:59;99708.00;;;29.09;nan
46408;BME280;32110;45.724;21.276;2022-08-14T12:26:26;99694.19;;;29.21;nan
46408;BME280;32110;45.724;21.276;2022-08-14T12:31:34;99697.00;;;29.28;nan
46408;BME280;32110;45.724;21.276;2022-08-14T12:34:03;99713.28;;;29.28;nan
46408;BME280;32110;45.724;21.276;2022-08-14T12:36:28;99706.50;;;29.45;nan
46408;BME280;32110;45.724;21.276;2022-08-14T12:38:59;99783.25;;;29.45;nan
46408;BME280;32110;45.724;21.276;2022-08-14T12:41:27;99693.84;;;29.53;nan
46408;BME280;32110;45.724;21.276;2022-08-14T12:43:59;99697.75;;;29.59;nan
46408;BME280;32110;45.724;21.276;2022-08-14T12:46:32;99695.03;;;29.59;nan
46408;BME280;32110;45.724;21.276;2022-08-14T12:49:08;99681.41;;;29.52;nan
46408;BME280;32110;45.724;21.276;2022-08-14T12:51:34;99687.09;;;29.73;nan
46408;BME280;32110;45.724;21.276;2022-08-14T12:54:14;99667.47;;;29.87;nan
46408;BME280;32110;45.724;21.276;2022-08-14T12:56:40;99667.16;;;29.96;nan
46408;BME280;32110;45.724;21.276;2022-08-14T12:59:06;99719.88;;;29.61;nan
46408;BME280;32110;45.724;21.276;2022-08-14T13:01:34;99675.16;;;29.81;nan
46408;BME280;32110;45.724;21.276;2022-08-14T13:04:06;99675.25;;;29.92;nan
46408;BME280;32110;45.724;21.276;2022-08-14T13:06:37;99709.09;;;30.02;nan
46408;BME280;32110;45.724;21.276;2022-08-14T13:09:03;99671.63;;;30.18;nan
46408;BME280;32110;45.724;21.276;2022-08-14T13:14:11;99637.53;;;30.24;nan
46408;BME280;32110;45.724;21.276;2022-08-14T13:16:40;99639.97;;;30.37;nan
46408;BME280;32110;45.724;21.276;2022-08-14T13:19:10;99640.75;;;30.41;nan
46408;BME280;32110;45.724;21.276;2022-08-14T13:21:38;99653.63;;;30.47;nan
46408;BME280;32110;45.724;21.276;2022-08-14T13:24:04;99651.34;;;30.53;nan
46408;BME280;32110;45.724;21.276;2022-08-14T13:26:31;99650.22;;;30.61;nan
46408;BME280;32110;45.724;21.276;2022-08-14T13:28:59;99639.03;;;30.73;nan
46408;BME280;32110;45.724;21.276;2022-08-14T13:31:29;99639.13;;;30.84;nan
46408;BME280;32110;45.724;21.276;2022-08-14T13:33:57;99684.22;;;30.89;nan
46408;BME280;32110;45.724;21.276;2022-08-14T13:36:25;99586.25;;;30.78;nan
46408;BME280;32110;45.724;21.276;2022-08-14T13:38:52;99611.59;;;30.89;nan
46408;BME280;32110;45.724;21.276;2022-08-14T13:41:18;99591.78;;;30.92;nan
46408;BME280;32110;45.724;21.276;2022-08-14T13:43:48;99621.31;;;30.98;nan
46408;BME280;32110;45.724;21.276;2022-08-14T13:46:17;99626.72;;;30.90;nan
46408;BME280;32110;45.724;21.276;2022-08-14T13:48:45;99632.97;;;30.98;nan
46408;BME280;32110;45.724;21.276;2022-08-14T13:51:10;99625.97;;;30.97;nan
46408;BME280;32110;45.724;21.276;2022-08-14T13:53:44;99562.47;;;30.53;nan
46408;BME280;32110;45.724;21.276;2022-08-14T13:56:10;99639.59;;;31.04;nan
46408;BME280;32110;45.724;21.276;2022-08-14T13:58:37;99606.16;;;30.89;nan
46408;BME280;32110;45.724;21.276;2022-08-14T14:01:03;99636.13;;;31.04;nan
46408;BME280;32110;45.724;21.276;2022-08-14T14:03:33;99616.31;;;31.07;nan
46408;BME280;32110;45.724;21.276;2022-08-14T14:06:01;99632.25;;;31.08;nan
46408;BME280;32110;45.724;21.276;2022-08-14T14:08:27;99636.88;;;31.08;nan
46408;BME280;32110;45.724;21.276;2022-08-14T14:10:54;99639.56;;;30.97;nan
46408;BME280;32110;45.724;21.276;2022-08-14T14:13:20;99615.47;;;30.92;nan
46408;BME280;32110;45.724;21.276;2022-08-14T14:15:47;99640.75;;;30.96;nan
46408;BME280;32110;45.724;21.276;2022-08-14T14:18:13;99615.34;;;30.74;nan
46408;BME280;32110;45.724;21.276;2022-08-14T14:20:42;99610.75;;;30.82;nan
46408;BME280;32110;45.724;21.276;2022-08-14T14:23:11;99603.75;;;30.77;nan
46408;BME280;32110;45.724;21.276;2022-08-14T14:25:43;99632.94;;;30.87;nan
46408;BME280;32110;45.724;21.276;2022-08-14T14:28:13;99618.56;;;30.87;nan
46408;BME280;32110;45.724;21.276;2022-08-14T14:30:44;99624.38;;;30.85;nan
46408;BME280;32110;45.724;21.276;2022-08-14T14:33:11;99622.81;;;30.84;nan
46408;BME280;32110;45.724;21.276;2022-08-14T14:35:37;99634.06;;;30.86;nan
46408;BME280;32110;45.724;21.276;2022-08-14T14:38:07;99580.44;;;30.80;nan
46408;BME280;32110;45.724;21.276;2022-08-14T14:40:38;99596.41;;;30.85;nan
46408;BME280;32110;45.724;21.276;2022-08-14T14:43:07;99547.25;;;30.45;nan
46408;BME280;32110;45.724;21.276;2022-08-14T14:45:36;99592.16;;;30.87;nan
46408;BME280;32110;45.724;21.276;2022-08-14T14:48:06;99621.28;;;30.87;nan
46408;BME280;32110;45.724;21.276;2022-08-14T14:50:33;99611.91;;;30.81;nan
46408;BME280;32110;45.724;21.276;2022-08-14T14:53:00;99601.34;;;30.68;nan
46408;BME280;32110;45.724;21.276;2022-08-14T14:55:27;99581.53;;;30.64;nan
46408;BME280;32110;45.724;21.276;2022-08-14T14:57:53;99599.81;;;30.67;nan
46408;BME280;32110;45.724;21.276;2022-08-14T15:00:20;99600.59;;;30.71;nan
46408;BME280;32110;45.724;21.276;2022-08-14T15:02:51;99597.09;;;30.71;nan
46408;BME280;32110;45.724;21.276;2022-08-14T15:05:17;99650.28;;;30.68;nan
46408;BME280;32110;45.724;21.276;2022-08-14T15:07:44;99584.66;;;30.66;nan
46408;BME280;32110;45.724;21.276;2022-08-14T15:10:12;99573.38;;;30.64;nan
46408;BME280;32110;45.724;21.276;2022-08-14T15:12:38;99601.34;;;30.72;nan